sensor_id;sensor_type;location;lat;lon;timestamp;P1;durP1;ratioP1;P2;durP2;ratioP2
209;SDS011;90;48.810;9.120;2022-08-30T00:00:51;9.50;;;8.23;;
209;SDS011;90;48.810;9.120;2022-08-30T00:03:30;10.70;;;8.87;;
209;SDS011;90;48.810;9.120;2022-08-30T00:06:11;10.13;;;8.73;;
209;SDS011;90;48.810;9.120;2022-08-30T00:08:50;10.43;;;8.73;;
209;SDS011;90;48.810;9.120;2022-08-30T00:11:28;12.40;;;9.63;;
209;SDS011;90;48.810;9.120;2022-08-30T00:14:00;16.70;;;9.10;;
209;SDS011;90;48.810;9.120;2022-08-30T00:16:44;13.33;;;8.77;;
209;SDS011;90;48.810;9.120;2022-08-30T00:19:25;15.23;;;8.87;;
209;SDS011;90;48.810;9.120;2022-08-30T00:22:16;11.13;;;8.70;;
209;SDS011;90;48.810;9.120;2022-08-30T00:25:07;14.30;;;8.70;;
209;SDS011;90;48.810;9.120;2022-08-30T00:27:41;13.77;;;8.83;;
209;SDS011;90;48.810;9.120;2022-08-30T00:30:16;7.40;;;7.00;;
209;SDS011;90;48.810;9.120;2022-08-30T00:32:55;15.23;;;8.97;;
209;SDS011;90;48.810;9.120;2022-08-30T00:35:32;10.60;;;7.67;;
209;SDS011;90;48.810;9.120;2022-08-30T00:38:18;11.47;;;8.93;;
209;SDS011;90;48.810;9.120;2022-08-30T00:40:49;11.10;;;8.47;;
209;SDS011;90;48.810;9.120;2022-08-30T00:43:22;13.83;;;8.60;;
209;SDS011;90;48.810;9.120;2022-08-30T00:45:56;12.60;;;8.20;;
209;SDS011;90;48.810;9.120;2022-08-30T00:48:32;18.60;;;8.73;;
209;SDS011;90;48.810;9.120;2022-08-30T00:51:03;12.60;;;8.60;;
209;SDS011;90;48.810;9.120;2022-08-30T00:53:33;16.80;;;9.10;;
209;SDS011;90;48.810;9.120;2022-08-30T00:56:04;15.43;;;8.43;;
209;SDS011;90;48.810;9.120;2022-08-30T00:58:33;14.03;;;8.80;;
209;SDS011;90;48.810;9.120;2022-08-30T01:01:05;10.70;;;8.70;;
209;SDS011;90;48.810;9.120;2022-08-30T01:03:33;15.43;;;9.23;;
209;SDS011;90;48.810;9.120;2022-08-30T01:06:02;11.10;;;9.10;;
209;SDS011;90;48.810;9.120;2022-08-30T01:08:33;13.00;;;8.80;;
209;SDS011;90;48.810;9.120;2022-08-30T01:11:00;10.40;;;8.83;;
209;SDS011;90;48.810;9.120;2022-08-30T01:13:29;11.10;;;8.50;;
209;SDS011;90;48.810;9.120;2022-08-30T01:15:58;13.93;;;8.97;;
209;SDS011;90;48.810;9.120;2022-08-30T01:18:27;11.30;;;8.73;;
209;SDS011;90;48.810;9.120;2022-08-30T01:20:58;12.80;;;9.53;;
209;SDS011;90;48.810;9.120;2022-08-30T01:23:32;12.53;;;9.60;;
209;SDS011;90;48.810;9.120;2022-08-30T01:26:03;10.33;;;9.13;;
209;SDS011;90;48.810;9.120;2022-08-30T01:28:31;11.37;;;8.97;;
209;SDS011;90;48.810;9.120;2022-08-30T01:30:59;11.27;;;9.03;;
209;SDS011;90;48.810;9.120;2022-08-30T01:33:26;11.60;;;8.93;;
209;SDS011;90;48.810;9.120;2022-08-30T01:35:55;12.00;;;8.77;;
209;SDS011;90;48.810;9.120;2022-08-30T01:38:24;11.53;;;9.40;;
209;SDS011;90;48.810;9.120;2022-08-30T01:40:58;13.50;;;9.27;;
209;SDS011;90;48.810;9.120;2022-08-30T01:43:26;11.43;;;8.30;;
209;SDS011;90;48.810;9.120;2022-08-30T01:45:53;13.50;;;8.40;;
209;SDS011;90;48.810;9.120;2022-08-30T01:48:20;10.53;;;8.33;;
209;SDS011;90;48.810;9.120;2022-08-30T01:50:49;16.63;;;9.07;;
209;SDS011;90;48.810;9.120;2022-08-30T01:53:17;11.90;;;8.30;;
209;SDS011;90;48.810;9.120;2022-08-30T01:55:44;10.50;;;8.90;;
209;SDS011;90;48.810;9.120;2022-08-30T01:58:12;13.57;;;8.70;;
209;SDS011;90;48.810;9.120;2022-08-30T02:00:40;11.07;;;8.73;;
209;SDS011;90;48.810;9.120;2022-08-30T02:03:07;10.30;;;8.37;;
209;SDS011;90;48.810;9.120;2022-08-30T02:05:34;15.10;;;9.33;;
209;SDS011;90;48.810;9.120;2022-08-30T02:08:04;9.13;;;7.90;;
209;SDS011;90;48.810;9.120;2022-08-30T02:10:31;11.07;;;8.83;;
209;SDS011;90;48.810;9.120;2022-08-30T02:12:58;12.77;;;8.40;;
209;SDS011;90;48.810;9.120;2022-08-30T02:15:27;12.37;;;8.77;;
209;SDS011;90;48.810;9.120;2022-08-30T02:17:54;9.13;;;7.97;;
209;SDS011;90;48.810;9.120;2022-08-30T02:20:24;12.63;;;8.47;;
209;SDS011;90;48.810;9.120;2022-08-30T02:22:51;12.60;;;8.23;;
209;SDS011;90;48.810;9.120;2022-08-30T02:25:18;9.50;;;7.80;;
209;SDS011;90;48.810;9.120;2022-08-30T02:27:45;14.83;;;9.23;;
209;SDS011;90;48.810;9.120;2022-08-30T02:30:13;12.63;;;9.23;;
209;SDS011;90;48.810;9.120;2022-08-30T02:32:41;13.80;;;8.77;;
209;SDS011;90;48.810;9.120;2022-08-30T02:35:08;12.30;;;9.20;;
209;SDS011;90;48.810;9.120;2022-08-30T02:37:36;13.33;;;9.10;;
209;SDS011;90;48.810;9.120;2022-08-30T02:40:03;12.53;;;8.50;;
209;SDS011;90;48.810;9.120;2022-08-30T02:42:32;8.93;;;8.10;;
209;SDS011;90;48.810;9.120;2022-08-30T02:45:00;11.70;;;8.83;;
209;SDS011;90;48.810;9.120;2022-08-30T02:47:27;12.13;;;9.40;;
209;SDS011;90;48.810;9.120;2022-08-30T02:49:56;10.53;;;8.83;;
209;SDS011;90;48.810;9.120;2022-08-30T02:52:23;11.53;;;8.80;;
209;SDS011;90;48.810;9.120;2022-08-30T02:54:50;16.90;;;8.93;;
209;SDS011;90;48.810;9.120;2022-08-30T02:57:18;10.30;;;8.80;;
209;SDS011;90;48.810;9.120;2022-08-30T02:59:45;14.33;;;9.20;;
209;SDS011;90;48.810;9.120;2022-08-30T03:02:14;11.87;;;8.33;;
209;SDS011;90;48.810;9.120;2022-08-30T03:04:41;13.40;;;8.97;;
209;SDS011;90;48.810;9.120;2022-08-30T03:07:10;13.60;;;9.20;;
209;SDS011;90;48.810;9.120;2022-08-30T03:09:38;12.97;;;10.03;;
209;SDS011;90;48.810;9.120;2022-08-30T03:12:06;12.53;;;9.10;;
209;SDS011;90;48.810;9.120;2022-08-30T03:14:34;14.13;;;8.63;;
209;SDS011;90;48.810;9.120;2022-08-30T03:17:03;15.30;;;10.20;;
209;SDS011;90;48.810;9.120;2022-08-30T03:19:32;11.97;;;8.70;;
209;SDS011;90;48.810;9.120;2022-08-30T03:22:00;14.70;;;9.60;;
209;SDS011;90;48.810;9.120;2022-08-30T03:24:29;14.00;;;8.97;;
209;SDS011;90;48.810;9.120;2022-08-30T03:26:56;12.60;;;8.80;;
209;SDS011;90;48.810;9.120;2022-08-30T03:29:23;12.37;;;8.87;;
209;SDS011;90;48.810;9.120;2022-08-30T03:31:50;10.90;;;8.50;;
209;SDS011;90;48.810;9.120;2022-08-30T03:34:17;11.30;;;8.23;;
209;SDS011;90;48.810;9.120;2022-08-30T03:36:45;14.53;;;9.50;;
209;SDS011;90;48.810;9.120;2022-08-30T03:39:13;12.47;;;8.17;;
209;SDS011;90;48.810;9.120;2022-08-30T03:41:42;16.83;;;9.80;;
209;SDS011;90;48.810;9.120;2022-08-30T03:44:10;11.90;;;8.23;;
209;SDS011;90;48.810;9.120;2022-08-30T03:46:37;13.13;;;9.37;;
209;SDS011;90;48.810;9.120;2022-08-30T03:49:05;12.20;;;9.17;;
209;SDS011;90;48.810;9.120;2022-08-30T03:51:32;11.80;;;9.13;;
209;SDS011;90;48.810;9.120;2022-08-30T03:53:59;12.13;;;9.60;;
209;SDS011;90;48.810;9.120;2022-08-30T03:56:26;10.90;;;8.50;;
209;SDS011;90;48.810;9.120;2022-08-30T03:58:55;12.27;;;8.50;;
209;SDS011;90;48.810;9.120;2022-08-30T04:01:22;11.27;;;9.37;;
209;SDS011;90;48.810;9.120;2022-08-30T04:03:49;8.93;;;8.43;;
209;SDS011;90;48.810;9.120;2022-08-30T04:06:19;12.87;;;10.30;;
209;SDS011;90;48.810;9.120;2022-08-30T04:08:46;11.70;;;9.30;;
209;SDS011;90;48.810;9.120;2022-08-30T04:11:14;22.93;;;9.50;;
209;SDS011;90;48.810;9.120;2022-08-30T04:13:41;13.10;;;9.33;;
209;SDS011;90;48.810;9.120;2022-08-30T04:16:09;12.40;;;9.20;;
209;SDS011;90;48.810;9.120;2022-08-30T04:18:36;13.90;;;9.60;;
209;SDS011;90;48.810;9.120;2022-08-30T04:21:04;15.87;;;9.27;;
209;SDS011;90;48.810;9.120;2022-08-30T04:23:31;12.45;;;8.35;;
209;SDS011;90;48.810;9.120;2022-08-30T04:25:58;14.90;;;9.70;;
209;SDS011;90;48.810;9.120;2022-08-30T04:28:26;10.30;;;9.00;;
209;SDS011;90;48.810;9.120;2022-08-30T04:30:53;11.60;;;9.17;;
209;SDS011;90;48.810;9.120;2022-08-30T04:33:22;17.17;;;9.90;;
209;SDS011;90;48.810;9.120;2022-08-30T04:35:49;13.03;;;9.10;;
209;SDS011;90;48.810;9.120;2022-08-30T04:38:17;15.20;;;8.93;;
209;SDS011;90;48.810;9.120;2022-08-30T04:40:45;16.27;;;9.70;;
209;SDS011;90;48.810;9.120;2022-08-30T04:43:13;12.73;;;9.90;;
209;SDS011;90;48.810;9.120;2022-08-30T04:45:41;11.30;;;9.70;;
209;SDS011;90;48.810;9.120;2022-08-30T04:48:09;9.60;;;9.10;;
209;SDS011;90;48.810;9.120;2022-08-30T04:50:37;12.23;;;9.20;;
209;SDS011;90;48.810;9.120;2022-08-30T04:53:04;11.07;;;8.73;;
209;SDS011;90;48.810;9.120;2022-08-30T04:55:31;12.90;;;9.10;;
209;SDS011;90;48.810;9.120;2022-08-30T04:57:58;11.97;;;9.10;;
209;SDS011;90;48.810;9.120;2022-08-30T05:00:26;12.30;;;8.87;;
209;SDS011;90;48.810;9.120;2022-08-30T05:02:53;12.57;;;9.03;;
209;SDS011;90;48.810;9.120;2022-08-30T05:05:20;13.10;;;8.80;;
209;SDS011;90;48.810;9.120;2022-08-30T05:08:08;18.00;;;9.40;;
209;SDS011;90;48.810;9.120;2022-08-30T05:10:37;13.57;;;10.00;;
209;SDS011;90;48.810;9.120;2022-08-30T05:13:05;11.97;;;9.57;;
209;SDS011;90;48.810;9.120;2022-08-30T05:15:32;16.40;;;9.37;;
209;SDS011;90;48.810;9.120;2022-08-30T05:17:59;16.73;;;9.20;;
209;SDS011;90;48.810;9.120;2022-08-30T05:20:26;11.23;;;8.20;;
209;SDS011;90;48.810;9.120;2022-08-30T05:22:54;12.43;;;9.10;;
209;SDS011;90;48.810;9.120;2022-08-30T05:25:23;11.73;;;8.93;;
209;SDS011;90;48.810;9.120;2022-08-30T05:27:51;12.95;;;8.30;;
209;SDS011;90;48.810;9.120;2022-08-30T05:30:19;13.80;;;9.27;;
209;SDS011;90;48.810;9.120;2022-08-30T05:32:47;11.13;;;8.70;;
209;SDS011;90;48.810;9.120;2022-08-30T05:35:15;13.60;;;9.93;;
209;SDS011;90;48.810;9.120;2022-08-30T05:37:43;12.13;;;9.70;;
209;SDS011;90;48.810;9.120;2022-08-30T05:40:11;11.27;;;9.63;;
209;SDS011;90;48.810;9.120;2022-08-30T05:42:43;17.93;;;9.50;;
209;SDS011;90;48.810;9.120;2022-08-30T05:45:11;20.30;;;9.70;;
209;SDS011;90;48.810;9.120;2022-08-30T05:47:40;14.17;;;11.03;;
209;SDS011;90;48.810;9.120;2022-08-30T05:50:07;16.27;;;9.63;;
209;SDS011;90;48.810;9.120;2022-08-30T05:52:35;16.90;;;9.97;;
209;SDS011;90;48.810;9.120;2022-08-30T05:55:06;17.97;;;10.80;;
209;SDS011;90;48.810;9.120;2022-08-30T05:57:37;15.07;;;10.57;;
209;SDS011;90;48.810;9.120;2022-08-30T06:00:09;12.30;;;10.20;;
209;SDS011;90;48.810;9.120;2022-08-30T06:02:38;15.80;;;10.93;;
209;SDS011;90;48.810;9.120;2022-08-30T06:05:06;15.07;;;9.50;;
209;SDS011;90;48.810;9.120;2022-08-30T06:07:35;13.07;;;9.30;;
209;SDS011;90;48.810;9.120;2022-08-30T06:10:02;12.27;;;8.87;;
209;SDS011;90;48.810;9.120;2022-08-30T06:12:30;14.47;;;9.30;;
209;SDS011;90;48.810;9.120;2022-08-30T06:14:59;13.60;;;9.60;;
209;SDS011;90;48.810;9.120;2022-08-30T06:17:28;12.60;;;10.07;;
209;SDS011;90;48.810;9.120;2022-08-30T06:19:55;13.97;;;10.10;;
209;SDS011;90;48.810;9.120;2022-08-30T06:22:22;11.00;;;9.80;;
209;SDS011;90;48.810;9.120;2022-08-30T06:24:49;15.60;;;10.43;;
209;SDS011;90;48.810;9.120;2022-08-30T06:27:17;15.77;;;10.93;;
209;SDS011;90;48.810;9.120;2022-08-30T06:29:44;14.10;;;9.90;;
209;SDS011;90;48.810;9.120;2022-08-30T06:32:11;17.47;;;10.27;;
209;SDS011;90;48.810;9.120;2022-08-30T06:34:40;14.53;;;11.37;;
209;SDS011;90;48.810;9.120;2022-08-30T06:37:09;16.50;;;11.63;;
209;SDS011;90;48.810;9.120;2022-08-30T06:39:36;15.40;;;12.13;;
209;SDS011;90;48.810;9.120;2022-08-30T06:42:03;13.67;;;11.23;;
209;SDS011;90;48.810;9.120;2022-08-30T06:44:31;13.33;;;10.30;;
209;SDS011;90;48.810;9.120;2022-08-30T06:46:58;17.20;;;12.50;;
209;SDS011;90;48.810;9.120;2022-08-30T06:49:25;16.40;;;12.07;;
209;SDS011;90;48.810;9.120;2022-08-30T06:51:53;16.70;;;12.63;;
209;SDS011;90;48.810;9.120;2022-08-30T06:54:21;15.40;;;12.17;;
209;SDS011;90;48.810;9.120;2022-08-30T06:56:48;21.67;;;13.23;;
209;SDS011;90;48.810;9.120;2022-08-30T06:59:15;17.57;;;12.53;;
209;SDS011;90;48.810;9.120;2022-08-30T07:01:42;19.77;;;13.70;;
209;SDS011;90;48.810;9.120;2022-08-30T07:04:09;24.33;;;13.00;;
209;SDS011;90;48.810;9.120;2022-08-30T07:06:36;23.47;;;13.50;;
209;SDS011;90;48.810;9.120;2022-08-30T07:09:05;15.30;;;13.00;;
209;SDS011;90;48.810;9.120;2022-08-30T07:11:32;21.07;;;12.40;;
209;SDS011;90;48.810;9.120;2022-08-30T07:14:02;19.13;;;11.93;;
209;SDS011;90;48.810;9.120;2022-08-30T07:16:30;17.90;;;12.60;;
209;SDS011;90;48.810;9.120;2022-08-30T07:18:58;18.50;;;12.83;;
209;SDS011;90;48.810;9.120;2022-08-30T07:21:26;17.07;;;11.90;;
209;SDS011;90;48.810;9.120;2022-08-30T07:23:56;19.13;;;12.37;;
209;SDS011;90;48.810;9.120;2022-08-30T07:26:26;19.10;;;12.13;;
209;SDS011;90;48.810;9.120;2022-08-30T07:28:55;20.73;;;11.70;;
209;SDS011;90;48.810;9.120;2022-08-30T07:31:22;21.03;;;12.10;;
209;SDS011;90;48.810;9.120;2022-08-30T07:33:50;23.50;;;12.20;;
209;SDS011;90;48.810;9.120;2022-08-30T07:36:18;16.30;;;11.97;;
209;SDS011;90;48.810;9.120;2022-08-30T07:38:46;19.37;;;12.20;;
209;SDS011;90;48.810;9.120;2022-08-30T07:41:17;68.53;;;32.10;;
209;SDS011;90;48.810;9.120;2022-08-30T07:43:48;29.87;;;17.00;;
209;SDS011;90;48.810;9.120;2022-08-30T07:46:15;21.27;;;14.20;;
209;SDS011;90;48.810;9.120;2022-08-30T07:48:42;70.87;;;25.00;;
209;SDS011;90;48.810;9.120;2022-08-30T07:51:11;53.73;;;16.03;;
209;SDS011;90;48.810;9.120;2022-08-30T07:53:39;90.10;;;24.53;;
209;SDS011;90;48.810;9.120;2022-08-30T07:56:06;49.47;;;20.27;;
209;SDS011;90;48.810;9.120;2022-08-30T07:58:33;42.63;;;17.00;;
209;SDS011;90;48.810;9.120;2022-08-30T08:01:03;32.73;;;16.40;;
209;SDS011;90;48.810;9.120;2022-08-30T08:03:31;28.90;;;13.97;;
209;SDS011;90;48.810;9.120;2022-08-30T08:05:59;26.20;;;12.70;;
209;SDS011;90;48.810;9.120;2022-08-30T08:08:29;17.43;;;12.10;;
209;SDS011;90;48.810;9.120;2022-08-30T08:10:56;13.83;;;10.47;;
209;SDS011;90;48.810;9.120;2022-08-30T08:13:23;12.87;;;10.93;;
209;SDS011;90;48.810;9.120;2022-08-30T08:15:50;14.75;;;11.45;;
209;SDS011;90;48.810;9.120;2022-08-30T08:18:18;16.33;;;11.40;;
209;SDS011;90;48.810;9.120;2022-08-30T08:20:46;13.53;;;10.83;;
209;SDS011;90;48.810;9.120;2022-08-30T08:23:13;11.60;;;11.00;;
209;SDS011;90;48.810;9.120;2022-08-30T08:25:41;17.30;;;11.03;;
209;SDS011;90;48.810;9.120;2022-08-30T08:28:08;14.20;;;11.40;;
209;SDS011;90;48.810;9.120;2022-08-30T08:30:36;14.30;;;11.73;;
209;SDS011;90;48.810;9.120;2022-08-30T08:33:03;14.27;;;11.10;;
209;SDS011;90;48.810;9.120;2022-08-30T08:35:32;14.43;;;11.10;;
209;SDS011;90;48.810;9.120;2022-08-30T08:38:00;13.77;;;10.93;;
209;SDS011;90;48.810;9.120;2022-08-30T08:40:27;14.17;;;11.50;;
209;SDS011;90;48.810;9.120;2022-08-30T08:43:01;15.10;;;11.10;;
209;SDS011;90;48.810;9.120;2022-08-30T08:45:37;15.67;;;11.30;;
209;SDS011;90;48.810;9.120;2022-08-30T08:48:13;16.50;;;12.47;;
209;SDS011;90;48.810;9.120;2022-08-30T08:50:55;13.33;;;11.80;;
209;SDS011;90;48.810;9.120;2022-08-30T08:53:40;22.93;;;12.10;;
209;SDS011;90;48.810;9.120;2022-08-30T08:56:13;13.67;;;12.13;;
209;SDS011;90;48.810;9.120;2022-08-30T08:58:48;15.50;;;11.33;;
209;SDS011;90;48.810;9.120;2022-08-30T09:01:19;14.43;;;11.50;;
209;SDS011;90;48.810;9.120;2022-08-30T09:03:49;18.33;;;12.23;;
209;SDS011;90;48.810;9.120;2022-08-30T09:06:35;13.03;;;11.03;;
209;SDS011;90;48.810;9.120;2022-08-30T09:09:09;13.90;;;11.07;;
209;SDS011;90;48.810;9.120;2022-08-30T09:11:36;14.03;;;11.10;;
209;SDS011;90;48.810;9.120;2022-08-30T09:14:08;16.70;;;10.43;;
209;SDS011;90;48.810;9.120;2022-08-30T09:16:48;13.83;;;11.07;;
209;SDS011;90;48.810;9.120;2022-08-30T09:19:28;12.20;;;10.53;;
209;SDS011;90;48.810;9.120;2022-08-30T09:22:00;12.47;;;11.30;;
209;SDS011;90;48.810;9.120;2022-08-30T09:24:39;16.37;;;10.87;;
209;SDS011;90;48.810;9.120;2022-08-30T09:27:17;12.83;;;10.90;;
209;SDS011;90;48.810;9.120;2022-08-30T09:29:51;14.40;;;11.07;;
209;SDS011;90;48.810;9.120;2022-08-30T09:32:27;15.67;;;10.50;;
209;SDS011;90;48.810;9.120;2022-08-30T09:34:57;14.20;;;11.53;;
209;SDS011;90;48.810;9.120;2022-08-30T09:37:27;11.90;;;10.20;;
209;SDS011;90;48.810;9.120;2022-08-30T09:40:01;10.87;;;10.23;;
209;SDS011;90;48.810;9.120;2022-08-30T09:42:36;12.40;;;10.03;;
209;SDS011;90;48.810;9.120;2022-08-30T09:45:03;10.73;;;9.90;;
209;SDS011;90;48.810;9.120;2022-08-30T09:47:36;13.50;;;10.30;;
209;SDS011;90;48.810;9.120;2022-08-30T09:50:06;14.00;;;10.90;;
209;SDS011;90;48.810;9.120;2022-08-30T09:52:44;11.97;;;9.50;;
209;SDS011;90;48.810;9.120;2022-08-30T09:55:46;15.67;;;10.27;;
209;SDS011;90;48.810;9.120;2022-08-30T09:58:22;12.57;;;10.03;;
209;SDS011;90;48.810;9.120;2022-08-30T10:01:04;12.10;;;9.93;;
209;SDS011;90;48.810;9.120;2022-08-30T10:03:38;12.50;;;9.57;;
209;SDS011;90;48.810;9.120;2022-08-30T10:06:14;11.27;;;10.17;;
209;SDS011;90;48.810;9.120;2022-08-30T10:08:56;15.93;;;10.57;;
209;SDS011;90;48.810;9.120;2022-08-30T10:11:33;11.80;;;9.90;;
209;SDS011;90;48.810;9.120;2022-08-30T10:14:07;12.17;;;10.53;;
209;SDS011;90;48.810;9.120;2022-08-30T10:16:59;14.80;;;10.53;;
209;SDS011;90;48.810;9.120;2022-08-30T10:19:36;11.10;;;10.00;;
209;SDS011;90;48.810;9.120;2022-08-30T10:22:14;12.63;;;10.30;;
209;SDS011;90;48.810;9.120;2022-08-30T10:24:47;13.10;;;9.90;;
209;SDS011;90;48.810;9.120;2022-08-30T10:27:20;11.40;;;10.30;;
209;SDS011;90;48.810;9.120;2022-08-30T10:29:55;12.40;;;11.50;;
209;SDS011;90;48.810;9.120;2022-08-30T10:32:35;12.13;;;10.60;;
209;SDS011;90;48.810;9.120;2022-08-30T10:35:08;16.73;;;11.27;;
209;SDS011;90;48.810;9.120;2022-08-30T10:37:40;12.60;;;9.93;;
209;SDS011;90;48.810;9.120;2022-08-30T10:40:13;13.63;;;10.40;;
209;SDS011;90;48.810;9.120;2022-08-30T10:43:00;12.50;;;10.70;;
209;SDS011;90;48.810;9.120;2022-08-30T10:45:58;13.23;;;11.13;;
209;SDS011;90;48.810;9.120;2022-08-30T10:48:34;21.27;;;11.50;;
209;SDS011;90;48.810;9.120;2022-08-30T10:51:07;11.00;;;10.40;;
209;SDS011;90;48.810;9.120;2022-08-30T10:53:38;12.30;;;10.60;;
209;SDS011;90;48.810;9.120;2022-08-30T10:59:06;11.27;;;10.27;;
209;SDS011;90;48.810;9.120;2022-08-30T11:01:50;11.73;;;10.40;;
209;SDS011;90;48.810;9.120;2022-08-30T11:07:40;11.00;;;10.40;;
209;SDS011;90;48.810;9.120;2022-08-30T11:10:19;9.60;;;9.10;;
209;SDS011;90;48.810;9.120;2022-08-30T11:12:58;12.00;;;10.83;;
209;SDS011;90;48.810;9.120;2022-08-30T11:15:28;11.20;;;10.47;;
209;SDS011;90;48.810;9.120;2022-08-30T11:18:01;11.20;;;10.60;;
209;SDS011;90;48.810;9.120;2022-08-30T11:20:32;12.40;;;10.90;;
209;SDS011;90;48.810;9.120;2022-08-30T11:25:55;16.20;;;11.17;;
209;SDS011;90;48.810;9.120;2022-08-30T11:31:35;14.87;;;11.80;;
209;SDS011;90;48.810;9.120;2022-08-30T11:34:05;14.33;;;11.53;;
209;SDS011;90;48.810;9.120;2022-08-30T11:39:52;12.67;;;10.40;;
209;SDS011;90;48.810;9.120;2022-08-30T11:42:25;10.97;;;9.90;;
209;SDS011;90;48.810;9.120;2022-08-30T11:48:06;11.43;;;9.30;;
209;SDS011;90;48.810;9.120;2022-08-30T11:50:54;10.00;;;9.50;;
209;SDS011;90;48.810;9.120;2022-08-30T11:53:32;12.93;;;9.33;;
209;SDS011;90;48.810;9.120;2022-08-30T11:56:09;15.37;;;9.67;;
209;SDS011;90;48.810;9.120;2022-08-30T11:58:48;9.80;;;9.30;;
209;SDS011;90;48.810;9.120;2022-08-30T12:01:29;11.97;;;9.60;;
209;SDS011;90;48.810;9.120;2022-08-30T12:04:02;13.13;;;9.87;;
209;SDS011;90;48.810;9.120;2022-08-30T12:06:48;12.43;;;8.90;;
209;SDS011;90;48.810;9.120;2022-08-30T12:18:24;10.20;;;9.70;;
209;SDS011;90;48.810;9.120;2022-08-30T12:20:54;10.70;;;8.77;;
209;SDS011;90;48.810;9.120;2022-08-30T12:23:39;10.53;;;9.97;;
209;SDS011;90;48.810;9.120;2022-08-30T12:26:14;10.97;;;9.43;;
209;SDS011;90;48.810;9.120;2022-08-30T12:28:44;9.90;;;9.40;;
209;SDS011;90;48.810;9.120;2022-08-30T12:31:16;10.53;;;10.00;;
209;SDS011;90;48.810;9.120;2022-08-30T12:33:47;12.67;;;9.70;;
209;SDS011;90;48.810;9.120;2022-08-30T12:36:31;11.67;;;10.33;;
209;SDS011;90;48.810;9.120;2022-08-30T12:39:07;10.03;;;9.53;;
209;SDS011;90;48.810;9.120;2022-08-30T12:41:37;10.70;;;10.10;;
209;SDS011;90;48.810;9.120;2022-08-30T12:44:05;12.03;;;9.33;;
209;SDS011;90;48.810;9.120;2022-08-30T12:46:37;10.70;;;10.10;;
209;SDS011;90;48.810;9.120;2022-08-30T12:49:06;10.90;;;9.90;;
209;SDS011;90;48.810;9.120;2022-08-30T12:51:36;10.40;;;9.90;;
209;SDS011;90;48.810;9.120;2022-08-30T12:54:13;9.70;;;9.20;;
209;SDS011;90;48.810;9.120;2022-08-30T12:56:45;9.67;;;9.17;;
209;SDS011;90;48.810;9.120;2022-08-30T13:02:18;10.77;;;10.17;;
209;SDS011;90;48.810;9.120;2022-08-30T13:04:49;10.68;;;9.32;;
209;SDS011;90;48.810;9.120;2022-08-30T13:07:26;10.80;;;10.20;;
209;SDS011;90;48.810;9.120;2022-08-30T13:10:07;11.50;;;9.73;;
209;SDS011;90;48.810;9.120;2022-08-30T13:12:56;11.17;;;10.00;;
209;SDS011;90;48.810;9.120;2022-08-30T13:15:29;10.90;;;10.30;;
209;SDS011;90;48.810;9.120;2022-08-30T13:18:11;11.90;;;10.33;;
209;SDS011;90;48.810;9.120;2022-08-30T13:20:44;11.80;;;10.10;;
209;SDS011;90;48.810;9.120;2022-08-30T13:23:21;10.40;;;9.90;;
209;SDS011;90;48.810;9.120;2022-08-30T13:25:49;12.30;;;9.90;;
209;SDS011;90;48.810;9.120;2022-08-30T13:28:17;9.60;;;9.10;;
209;SDS011;90;48.810;9.120;2022-08-30T13:30:45;10.30;;;9.80;;
209;SDS011;90;48.810;9.120;2022-08-30T13:33:12;10.97;;;9.50;;
209;SDS011;90;48.810;9.120;2022-08-30T13:35:40;10.27;;;9.77;;
209;SDS011;90;48.810;9.120;2022-08-30T13:38:07;11.07;;;9.30;;
209;SDS011;90;48.810;9.120;2022-08-30T13:40:36;9.40;;;8.90;;
209;SDS011;90;48.810;9.120;2022-08-30T13:43:03;9.63;;;9.13;;
209;SDS011;90;48.810;9.120;2022-08-30T13:45:30;10.10;;;9.40;;
209;SDS011;90;48.810;9.120;2022-08-30T13:47:58;10.73;;;10.03;;
209;SDS011;90;48.810;9.120;2022-08-30T13:50:25;10.00;;;9.50;;
209;SDS011;90;48.810;9.120;2022-08-30T13:52:53;10.93;;;9.40;;
209;SDS011;90;48.810;9.120;2022-08-30T13:55:20;9.57;;;8.90;;
209;SDS011;90;48.810;9.120;2022-08-30T13:57:48;10.97;;;9.27;;
209;SDS011;90;48.810;9.120;2022-08-30T14:00:17;10.20;;;9.70;;
209;SDS011;90;48.810;9.120;2022-08-30T14:02:47;11.10;;;10.50;;
209;SDS011;90;48.810;9.120;2022-08-30T14:05:16;10.47;;;9.93;;
209;SDS011;90;48.810;9.120;2022-08-30T14:07:43;9.80;;;9.30;;
209;SDS011;90;48.810;9.120;2022-08-30T14:10:10;12.87;;;9.43;;
209;SDS011;90;48.810;9.120;2022-08-30T14:12:39;10.30;;;9.80;;
209;SDS011;90;48.810;9.120;2022-08-30T14:15:08;9.80;;;9.30;;
209;SDS011;90;48.810;9.120;2022-08-30T14:17:35;9.40;;;8.90;;
209;SDS011;90;48.810;9.120;2022-08-30T14:20:02;13.10;;;10.00;;
209;SDS011;90;48.810;9.120;2022-08-30T14:22:29;11.70;;;9.67;;
209;SDS011;90;48.810;9.120;2022-08-30T14:24:56;12.57;;;9.50;;
209;SDS011;90;48.810;9.120;2022-08-30T14:27:25;10.07;;;9.57;;
209;SDS011;90;48.810;9.120;2022-08-30T14:29:52;15.53;;;10.13;;
209;SDS011;90;48.810;9.120;2022-08-30T14:32:21;12.30;;;10.20;;
209;SDS011;90;48.810;9.120;2022-08-30T14:34:48;12.40;;;10.40;;
209;SDS011;90;48.810;9.120;2022-08-30T14:37:15;9.23;;;8.73;;
209;SDS011;90;48.810;9.120;2022-08-30T14:39:42;12.17;;;9.40;;
209;SDS011;90;48.810;9.120;2022-08-30T14:42:09;11.00;;;9.60;;
209;SDS011;90;48.810;9.120;2022-08-30T14:44:37;11.73;;;9.93;;
209;SDS011;90;48.810;9.120;2022-08-30T14:47:04;10.63;;;10.03;;
209;SDS011;90;48.810;9.120;2022-08-30T14:49:33;10.20;;;8.90;;
209;SDS011;90;48.810;9.120;2022-08-30T14:52:00;10.80;;;10.20;;
209;SDS011;90;48.810;9.120;2022-08-30T14:54:28;10.83;;;10.03;;
209;SDS011;90;48.810;9.120;2022-08-30T14:56:56;10.30;;;9.47;;
209;SDS011;90;48.810;9.120;2022-08-30T14:59:23;10.10;;;9.40;;
209;SDS011;90;48.810;9.120;2022-08-30T15:01:51;13.20;;;9.45;;
209;SDS011;90;48.810;9.120;2022-08-30T15:04:18;11.17;;;9.43;;
209;SDS011;90;48.810;9.120;2022-08-30T15:06:47;15.20;;;11.07;;
209;SDS011;90;48.810;9.120;2022-08-30T15:09:16;13.03;;;10.80;;
209;SDS011;90;48.810;9.120;2022-08-30T15:11:44;11.70;;;10.40;;
209;SDS011;90;48.810;9.120;2022-08-30T15:14:11;10.67;;;9.37;;
209;SDS011;90;48.810;9.120;2022-08-30T15:16:38;12.50;;;10.20;;
209;SDS011;90;48.810;9.120;2022-08-30T15:19:07;12.60;;;10.17;;
209;SDS011;90;48.810;9.120;2022-08-30T15:21:36;12.80;;;10.50;;
209;SDS011;90;48.810;9.120;2022-08-30T15:24:06;15.07;;;10.30;;
209;SDS011;90;48.810;9.120;2022-08-30T15:26:35;11.47;;;10.87;;
209;SDS011;90;48.810;9.120;2022-08-30T15:29:05;12.20;;;10.10;;
209;SDS011;90;48.810;9.120;2022-08-30T15:31:34;13.17;;;9.90;;
209;SDS011;90;48.810;9.120;2022-08-30T15:34:04;11.70;;;10.17;;
209;SDS011;90;48.810;9.120;2022-08-30T15:36:31;13.03;;;9.90;;
209;SDS011;90;48.810;9.120;2022-08-30T15:38:58;11.10;;;9.63;;
209;SDS011;90;48.810;9.120;2022-08-30T15:41:27;10.73;;;9.30;;
209;SDS011;90;48.810;9.120;2022-08-30T15:43:54;14.53;;;10.20;;
209;SDS011;90;48.810;9.120;2022-08-30T15:46:23;12.40;;;9.70;;
209;SDS011;90;48.810;9.120;2022-08-30T15:48:54;10.80;;;10.07;;
209;SDS011;90;48.810;9.120;2022-08-30T15:51:23;10.70;;;10.10;;
209;SDS011;90;48.810;9.120;2022-08-30T15:53:51;11.90;;;9.60;;
209;SDS011;90;48.810;9.120;2022-08-30T15:56:18;10.13;;;9.50;;
209;SDS011;90;48.810;9.120;2022-08-30T15:58:46;11.17;;;9.70;;
209;SDS011;90;48.810;9.120;2022-08-30T16:01:14;11.77;;;10.43;;
209;SDS011;90;48.810;9.120;2022-08-30T16:03:42;11.13;;;10.50;;
209;SDS011;90;48.810;9.120;2022-08-30T16:06:10;12.43;;;9.97;;
209;SDS011;90;48.810;9.120;2022-08-30T16:08:38;12.50;;;10.57;;
209;SDS011;90;48.810;9.120;2022-08-30T16:11:06;12.80;;;11.20;;
209;SDS011;90;48.810;9.120;2022-08-30T16:13:33;13.73;;;12.30;;
209;SDS011;90;48.810;9.120;2022-08-30T16:16:02;12.83;;;11.10;;
209;SDS011;90;48.810;9.120;2022-08-30T16:18:31;11.43;;;10.50;;
209;SDS011;90;48.810;9.120;2022-08-30T16:21:02;11.83;;;9.97;;
209;SDS011;90;48.810;9.120;2022-08-30T16:23:32;13.13;;;10.60;;
209;SDS011;90;48.810;9.120;2022-08-30T16:26:00;11.60;;;10.70;;
209;SDS011;90;48.810;9.120;2022-08-30T16:28:27;10.20;;;9.70;;
209;SDS011;90;48.810;9.120;2022-08-30T16:30:55;15.10;;;10.90;;